createdAt,value
2019-03-22T00:00:53.521Z,8.93
2019-03-22T00:03:21.916Z,9.00
2019-03-22T00:05:50.422Z,7.90
2019-03-22T00:08:19.109Z,7.70
2019-03-22T00:10:47.628Z,11.10
2019-03-22T00:13:16.045Z,10.07
2019-03-22T00:15:44.446Z,10.00
2019-03-22T00:18:12.850Z,10.23
2019-03-22T00:20:41.247Z,9.27
2019-03-22T00:23:09.652Z,9.70
2019-03-22T00:25:38.089Z,8.97
2019-03-22T00:28:06.505Z,11.47
2019-03-22T00:30:34.954Z,8.70
2019-03-22T00:33:03.355Z,7.30
2019-03-22T00:35:31.755Z,7.63
2019-03-22T00:38:00.225Z,8.83
2019-03-22T00:40:28.654Z,10.63
2019-03-22T00:42:57.062Z,6.23
2019-03-22T00:45:25.453Z,6.90
2019-03-22T00:47:53.855Z,10.17
2019-03-22T00:50:22.266Z,9.93
2019-03-22T00:52:50.666Z,6.23
2019-03-22T00:55:19.057Z,6.67
2019-03-22T00:57:47.453Z,6.73
2019-03-22T01:00:15.993Z,7.73
2019-03-22T01:02:44.385Z,7.83
2019-03-22T01:05:12.925Z,7.43
2019-03-22T01:07:41.331Z,9.40
2019-03-22T01:10:13.513Z,6.83
2019-03-22T01:12:42.086Z,12.07
2019-03-22T01:15:12.500Z,7.80
2019-03-22T01:17:40.970Z,6.23
2019-03-22T01:20:10.703Z,6.00
2019-03-22T01:22:39.104Z,9.63
2019-03-22T01:25:08.541Z,8.90
2019-03-22T01:27:40.642Z,6.23
2019-03-22T01:30:12.861Z,8.70
2019-03-22T01:32:41.258Z,6.43
2019-03-22T01:35:10.399Z,8.40
2019-03-22T01:37:38.799Z,7.10
2019-03-22T01:40:09.651Z,9.67
2019-03-22T01:42:38.190Z,7.97
2019-03-22T01:45:09.407Z,7.50
2019-03-22T01:47:37.969Z,9.40
2019-03-22T01:50:09.321Z,6.90
2019-03-22T01:52:38.462Z,6.60
2019-03-22T01:55:07.058Z,8.83
2019-03-22T01:57:35.458Z,8.97
2019-03-22T02:00:09.189Z,9.43
2019-03-22T02:02:37.652Z,8.53
2019-03-22T02:05:07.292Z,8.03
2019-03-22T02:07:35.866Z,10.10
2019-03-22T02:10:07.218Z,8.53
2019-03-22T02:12:35.629Z,9.43
2019-03-22T02:15:06.472Z,7.57
2019-03-22T02:17:34.868Z,7.83
2019-03-22T02:20:05.622Z,8.53
2019-03-22T02:22:34.025Z,7.97
2019-03-22T02:25:02.446Z,8.67
2019-03-22T02:27:30.850Z,8.47
2019-03-22T02:29:59.281Z,7.60
2019-03-22T02:32:27.682Z,7.77
2019-03-22T02:34:56.080Z,9.07
2019-03-22T02:37:24.483Z,14.03
2019-03-22T02:39:52.882Z,14.30
2019-03-22T02:42:21.284Z,9.40
2019-03-22T02:44:49.677Z,9.87
2019-03-22T02:47:18.086Z,7.37
2019-03-22T02:49:46.480Z,7.33
2019-03-22T02:52:15.176Z,8.03
2019-03-22T02:54:45.093Z,10.20
2019-03-22T02:57:13.526Z,8.17
2019-03-22T02:59:41.925Z,8.97
2019-03-22T03:02:10.341Z,10.20
2019-03-22T03:04:39.023Z,8.50
2019-03-22T03:07:07.424Z,10.20
2019-03-22T03:09:35.821Z,8.47
2019-03-22T03:12:04.223Z,7.53
2019-03-22T03:14:32.618Z,9.43
2019-03-22T03:17:01.023Z,10.23
2019-03-22T03:19:29.410Z,7.93
2019-03-22T03:21:57.808Z,8.07
2019-03-22T03:24:26.214Z,12.73
2019-03-22T03:26:54.621Z,7.50
2019-03-22T03:29:23.021Z,6.73
2019-03-22T03:31:51.425Z,8.13
2019-03-22T03:34:19.827Z,8.53
2019-03-22T03:36:48.555Z,7.03
2019-03-22T03:39:16.942Z,9.13
2019-03-22T03:41:45.342Z,8.10
2019-03-22T03:44:13.737Z,10.00
2019-03-22T03:46:42.145Z,9.20
2019-03-22T03:49:10.660Z,9.63
2019-03-22T03:51:39.054Z,9.10
2019-03-22T03:54:07.459Z,8.03
2019-03-22T03:56:35.865Z,8.17
2019-03-22T03:59:04.330Z,7.53
2019-03-22T04:01:33.041Z,8.63
2019-03-22T04:04:01.455Z,7.37
2019-03-22T04:06:29.843Z,9.20
2019-03-22T04:08:58.247Z,11.60
2019-03-22T04:11:26.680Z,9.67
2019-03-22T04:13:55.170Z,9.87
2019-03-22T04:16:23.565Z,10.13
2019-03-22T04:18:51.962Z,8.40
2019-03-22T04:21:20.353Z,9.10
2019-03-22T04:23:48.766Z,10.77
2019-03-22T04:26:17.161Z,7.90
2019-03-22T04:28:45.575Z,10.13
2019-03-22T04:31:13.970Z,9.83
2019-03-22T04:33:42.372Z,9.20
2019-03-22T04:36:10.762Z,8.30
2019-03-22T04:38:39.174Z,9.53
2019-03-22T04:41:07.564Z,9.17
2019-03-22T04:43:35.967Z,10.10
2019-03-22T04:46:05.214Z,10.83
2019-03-22T04:48:36.752Z,11.37
2019-03-22T04:51:06.988Z,9.63
2019-03-22T04:53:43.981Z,9.27
2019-03-22T04:56:15.385Z,8.30
2019-03-22T04:58:46.876Z,10.40
2019-03-22T05:01:15.497Z,14.07
2019-03-22T05:03:44.517Z,8.40
2019-03-22T05:06:14.069Z,9.63
2019-03-22T05:08:43.313Z,10.57
2019-03-22T05:11:13.548Z,12.43
2019-03-22T05:13:44.949Z,8.77
2019-03-22T05:16:14.980Z,9.13
2019-03-22T05:18:46.462Z,11.53
2019-03-22T05:21:16.196Z,8.43
2019-03-22T05:23:46.377Z,13.47
2019-03-22T05:26:17.846Z,9.10
2019-03-22T05:28:46.989Z,11.60
2019-03-22T05:31:24.605Z,11.17
2019-03-22T05:33:53.008Z,10.63
2019-03-22T05:36:22.327Z,10.67
2019-03-22T05:38:50.809Z,8.57
2019-03-22T05:41:19.205Z,12.60
2019-03-22T05:43:47.776Z,7.83
2019-03-22T05:46:16.177Z,12.00
2019-03-22T05:48:44.913Z,10.90
2019-03-22T05:51:13.305Z,9.30
2019-03-22T05:53:41.718Z,10.30
2019-03-22T05:56:10.105Z,11.37
2019-03-22T06:15:37.985Z,12.27
2019-03-22T06:18:06.395Z,13.97
2019-03-22T06:20:34.807Z,10.07
2019-03-22T06:23:03.202Z,11.20
2019-03-22T06:25:31.614Z,8.57
2019-03-22T06:28:00.009Z,11.10
2019-03-22T06:30:28.481Z,8.47
2019-03-22T06:32:56.916Z,11.70
2019-03-22T06:35:25.399Z,10.20
2019-03-22T06:37:53.799Z,8.63
2019-03-22T06:40:22.254Z,9.33
2019-03-22T06:42:50.726Z,10.57
2019-03-22T06:45:19.129Z,10.07
2019-03-22T06:47:47.538Z,8.80
2019-03-22T06:50:15.975Z,13.00
2019-03-22T06:52:44.378Z,11.23
2019-03-22T06:55:12.797Z,13.90
2019-03-22T06:57:41.195Z,11.97
2019-03-22T07:00:11.841Z,11.53
2019-03-22T07:02:40.246Z,12.33
2019-03-22T07:05:08.740Z,12.97
2019-03-22T07:07:37.143Z,11.43
2019-03-22T07:10:07.078Z,9.37
2019-03-22T07:12:35.485Z,13.93
2019-03-22T07:15:05.730Z,8.97
2019-03-22T07:17:34.211Z,12.67
2019-03-22T07:20:02.773Z,9.27
2019-03-22T07:22:31.177Z,9.83
2019-03-22T07:24:59.581Z,11.23
2019-03-22T07:27:27.984Z,12.47
2019-03-22T07:29:56.377Z,9.70
2019-03-22T07:32:24.778Z,10.10
2019-03-22T07:34:53.185Z,10.23
2019-03-22T07:37:21.592Z,11.77
2019-03-22T07:39:50.106Z,10.07
2019-03-22T07:42:18.518Z,9.07
2019-03-22T07:44:46.965Z,11.80
2019-03-22T07:47:15.358Z,7.90
2019-03-22T07:49:43.762Z,13.47
2019-03-22T07:52:12.257Z,8.97
2019-03-22T07:54:40.723Z,9.87
2019-03-22T07:57:09.371Z,11.00
2019-03-22T07:59:37.778Z,8.00
2019-03-22T08:02:06.189Z,8.00
2019-03-22T08:04:34.593Z,7.90
2019-03-22T08:07:02.999Z,8.00
2019-03-22T08:09:31.398Z,9.73
2019-03-22T08:12:00.077Z,8.98
2019-03-22T08:14:28.483Z,10.28
2019-03-22T08:16:56.893Z,11.28
2019-03-22T08:19:25.309Z,10.20
2019-03-22T08:21:53.798Z,11.20
2019-03-22T08:24:22.227Z,9.58
2019-03-22T08:26:50.694Z,10.60
2019-03-22T08:29:19.102Z,9.50
2019-03-22T08:31:47.509Z,11.03
2019-03-22T08:34:15.917Z,11.57
2019-03-22T08:36:44.341Z,12.63
2019-03-22T08:39:12.776Z,9.85
2019-03-22T08:41:41.275Z,9.88
2019-03-22T08:44:09.699Z,13.18
2019-03-22T08:46:38.097Z,11.70
2019-03-22T08:49:09.370Z,10.85
2019-03-22T08:51:36.643Z,9.55
2019-03-22T08:54:05.143Z,10.68
2019-03-22T08:56:35.935Z,9.83
2019-03-22T08:59:03.742Z,9.28
2019-03-22T09:01:32.158Z,10.40
2019-03-22T09:04:00.579Z,10.45
2019-03-22T09:06:29.005Z,11.05
2019-03-22T09:08:57.477Z,9.75
2019-03-22T09:11:25.891Z,13.43
2019-03-22T09:13:54.647Z,11.57
2019-03-22T09:16:23.102Z,10.13
2019-03-22T09:18:51.555Z,9.03
2019-03-22T09:21:20.014Z,10.05
2019-03-22T09:23:48.428Z,10.90
2019-03-22T09:26:19.755Z,12.28
2019-03-22T09:28:47.030Z,12.45
2019-03-22T09:31:15.498Z,11.20
2019-03-22T09:33:43.958Z,11.73
2019-03-22T09:36:12.374Z,10.15
2019-03-22T09:38:40.782Z,10.32
2019-03-22T09:41:09.225Z,10.93
2019-03-22T09:43:37.726Z,10.20
2019-03-22T09:46:06.190Z,14.00
2019-03-22T09:48:34.597Z,10.90
2019-03-22T09:51:03.046Z,10.65
2019-03-22T09:53:31.503Z,10.65
2019-03-22T09:55:59.918Z,9.98
2019-03-22T09:58:28.321Z,12.95
2019-03-22T10:00:56.825Z,11.30
2019-03-22T10:03:25.230Z,11.33
2019-03-22T10:05:53.668Z,10.95
2019-03-22T10:08:22.159Z,10.85
2019-03-22T10:10:50.673Z,11.38
2019-03-22T10:13:19.114Z,9.40
2019-03-22T10:15:47.530Z,9.83
2019-03-22T10:18:15.988Z,10.32
2019-03-22T10:20:44.438Z,10.08
2019-03-22T10:23:12.858Z,9.03
2019-03-22T10:25:41.256Z,10.68
2019-03-22T10:28:09.675Z,9.85
2019-03-22T10:30:38.094Z,10.35
2019-03-22T10:33:06.562Z,10.45
2019-03-22T10:35:34.981Z,12.25
2019-03-22T10:38:04.717Z,8.25
2019-03-22T10:40:33.514Z,9.78
2019-03-22T10:43:01.958Z,8.28
2019-03-22T10:45:30.544Z,9.10
2019-03-22T10:47:58.998Z,7.45
2019-03-22T10:50:27.389Z,8.10
2019-03-22T10:52:55.834Z,9.55
2019-03-22T10:55:30.356Z,9.10
2019-03-22T10:57:55.555Z,10.95
2019-03-22T11:00:24.205Z,8.93
2019-03-22T11:02:52.606Z,10.13
2019-03-22T11:05:21.018Z,9.53
2019-03-22T11:07:49.417Z,9.15
2019-03-22T11:10:17.826Z,9.35
2019-03-22T11:12:46.235Z,8.08
2019-03-22T11:15:15.389Z,9.25
2019-03-22T11:17:43.802Z,9.08
2019-03-22T11:20:15.733Z,8.75
2019-03-22T11:22:44.157Z,9.40
2019-03-22T11:25:13.105Z,9.48
2019-03-22T11:27:41.780Z,9.18
2019-03-22T11:30:17.696Z,8.85
2019-03-22T11:32:46.172Z,9.18
2019-03-22T11:35:14.835Z,9.53
2019-03-22T11:37:43.245Z,11.50
2019-03-22T11:40:16.732Z,7.60
2019-03-22T11:42:45.531Z,8.68
2019-03-22T11:45:19.395Z,9.28
2019-03-22T11:47:47.915Z,8.25
2019-03-22T11:50:16.757Z,9.13
2019-03-22T11:52:45.250Z,9.53
2019-03-22T11:55:16.471Z,8.10
2019-03-22T11:57:44.877Z,7.97
2019-03-22T12:00:18.879Z,10.20
2019-03-22T12:02:48.928Z,6.65
2019-03-22T12:05:17.470Z,7.17
2019-03-22T12:07:45.869Z,8.10
2019-03-22T12:10:17.362Z,6.67
2019-03-22T12:12:45.938Z,6.12
2019-03-22T12:15:17.089Z,7.20
2019-03-22T12:17:45.574Z,9.35
2019-03-22T12:20:24.384Z,8.45
2019-03-22T12:22:52.868Z,7.37
2019-03-22T12:25:23.741Z,8.18
2019-03-22T12:27:52.197Z,8.00
2019-03-22T12:30:20.856Z,6.62
2019-03-22T12:32:49.270Z,5.62
2019-03-22T12:35:18.066Z,10.18
2019-03-22T12:37:46.680Z,4.62
2019-03-22T12:40:17.914Z,7.50
2019-03-22T12:42:46.461Z,6.58
2019-03-22T12:45:25.577Z,8.08
2019-03-22T12:47:54.059Z,8.13
2019-03-22T12:50:22.909Z,7.40
2019-03-22T12:52:51.313Z,3.90
2019-03-22T12:55:19.793Z,5.75
2019-03-22T12:57:48.265Z,6.00
2019-03-22T13:00:24.410Z,4.67
2019-03-22T13:02:52.955Z,4.05
2019-03-22T13:05:22.006Z,4.25
2019-03-22T13:07:51.054Z,6.42
2019-03-22T13:10:25.257Z,3.98
2019-03-22T13:12:53.778Z,5.37
2019-03-22T13:15:22.174Z,4.60
2019-03-22T13:17:50.588Z,6.30
2019-03-22T13:20:19.059Z,5.95
2019-03-22T13:22:47.475Z,6.45
2019-03-22T13:25:17.218Z,4.10
2019-03-22T13:27:45.620Z,3.45
2019-03-22T13:30:20.405Z,3.85
2019-03-22T13:32:52.276Z,4.80
2019-03-22T13:35:43.766Z,3.65
2019-03-22T13:38:12.206Z,4.72
2019-03-22T13:40:40.729Z,3.70
2019-03-22T13:43:09.142Z,5.47
2019-03-22T13:45:37.550Z,4.45
2019-03-22T13:48:09.126Z,4.45
2019-03-22T13:50:37.604Z,6.60
2019-03-22T13:53:06.012Z,3.37
2019-03-22T13:55:34.418Z,5.47
2019-03-22T13:58:02.902Z,5.08
2019-03-22T14:00:31.298Z,3.95
2019-03-22T14:03:02.843Z,5.22
2019-03-22T14:05:29.836Z,4.33
2019-03-22T14:07:58.249Z,6.25
2019-03-22T14:10:36.485Z,3.47
2019-03-22T14:13:06.533Z,3.47
2019-03-22T14:15:35.130Z,3.60
2019-03-22T14:18:03.557Z,4.72
2019-03-22T14:20:31.957Z,2.70
2019-03-22T14:23:00.401Z,3.35
2019-03-22T14:25:28.817Z,3.40
2019-03-22T14:27:57.220Z,3.90
2019-03-22T14:30:25.622Z,6.03
2019-03-22T14:32:54.879Z,3.35
2019-03-22T14:35:23.282Z,3.98
2019-03-22T14:37:51.697Z,2.50
2019-03-22T14:40:20.110Z,3.65
2019-03-22T14:42:48.527Z,3.70
2019-03-22T14:45:16.937Z,3.25
2019-03-22T14:47:45.482Z,3.05
2019-03-22T14:50:13.950Z,6.67
2019-03-22T14:52:42.357Z,5.62
2019-03-22T14:55:10.929Z,7.10
2019-03-22T14:57:48.125Z,4.83
2019-03-22T15:00:12.341Z,4.00
2019-03-22T15:02:40.740Z,2.65
2019-03-22T15:05:09.586Z,4.53
2019-03-22T15:07:38.266Z,3.15
2019-03-22T15:10:09.080Z,4.30
2019-03-22T15:12:37.560Z,3.37
2019-03-22T15:15:09.942Z,8.23
2019-03-22T15:17:52.171Z,2.35
2019-03-22T15:20:27.912Z,4.73
2019-03-22T15:23:14.586Z,3.40
2019-03-22T15:25:44.717Z,3.57
2019-03-22T15:28:30.050Z,3.80
2019-03-22T15:31:18.097Z,2.77
2019-03-22T15:33:59.898Z,2.80
2019-03-22T15:36:48.285Z,2.73
2019-03-22T15:42:02.873Z,3.20
2019-03-22T15:44:31.286Z,3.47
2019-03-22T15:46:59.845Z,2.90
2019-03-22T15:49:28.254Z,1.97
2019-03-22T15:51:56.653Z,2.97
2019-03-22T15:54:25.070Z,3.73
2019-03-22T15:56:53.470Z,3.53
2019-03-22T15:59:21.884Z,3.70
2019-03-22T16:01:50.282Z,2.50
2019-03-22T16:04:18.815Z,4.43
2019-03-22T16:06:47.281Z,3.07
2019-03-22T16:09:15.685Z,3.23
2019-03-22T16:11:44.093Z,2.80
2019-03-22T16:14:12.537Z,3.40
2019-03-22T16:16:41.105Z,3.10
2019-03-22T16:19:09.506Z,3.47
2019-03-22T16:21:37.921Z,3.33
2019-03-22T16:24:06.333Z,2.03
2019-03-22T16:26:34.754Z,3.37
2019-03-22T16:29:03.234Z,2.60
2019-03-22T16:31:31.637Z,3.57
2019-03-22T16:34:00.053Z,3.07
2019-03-22T16:36:28.460Z,4.33
2019-03-22T16:38:56.870Z,3.60
2019-03-22T16:41:25.274Z,1.97
2019-03-22T16:43:53.795Z,4.70
2019-03-22T16:46:22.361Z,3.87
2019-03-22T16:48:50.857Z,6.37
2019-03-22T16:51:19.264Z,9.50
2019-03-22T16:53:47.749Z,5.73
2019-03-22T16:56:16.188Z,5.63
2019-03-22T16:58:44.729Z,3.80
2019-03-22T17:01:13.379Z,4.83
2019-03-22T17:03:41.779Z,6.23
2019-03-22T17:06:10.297Z,4.60
2019-03-22T17:08:38.740Z,5.87
2019-03-22T17:11:07.290Z,6.47
2019-03-22T17:13:35.693Z,5.37
2019-03-22T17:16:04.170Z,4.77
2019-03-22T17:18:32.643Z,3.80
2019-03-22T17:21:01.067Z,3.83
2019-03-22T17:23:29.526Z,5.10
2019-03-22T17:25:58.045Z,5.00
2019-03-22T17:28:26.818Z,4.77
2019-03-22T17:30:55.230Z,5.13
2019-03-22T17:33:23.642Z,5.83
2019-03-22T17:35:52.052Z,5.43
2019-03-22T17:38:20.459Z,10.10
2019-03-22T17:40:48.977Z,11.77
2019-03-22T17:43:17.449Z,9.30
2019-03-22T17:45:45.863Z,10.40
2019-03-22T17:48:14.265Z,9.67
2019-03-22T17:50:42.685Z,10.47
2019-03-22T17:53:11.088Z,11.53
2019-03-22T17:55:39.502Z,9.50
2019-03-22T17:58:07.902Z,7.67
2019-03-22T18:00:36.607Z,9.47
2019-03-22T18:03:05.293Z,7.70
2019-03-22T18:05:33.709Z,11.90
2019-03-22T18:08:02.491Z,5.07
2019-03-22T18:10:30.939Z,11.90
2019-03-22T18:12:59.349Z,10.47
2019-03-22T18:15:27.765Z,11.77
2019-03-22T18:17:56.170Z,7.77
2019-03-22T18:20:24.676Z,7.33
2019-03-22T18:22:53.152Z,7.97
2019-03-22T18:25:21.570Z,9.77
2019-03-22T18:27:49.986Z,29.63
2019-03-22T18:30:18.490Z,16.07
2019-03-22T18:32:47.376Z,16.00
2019-03-22T18:35:15.881Z,11.07
2019-03-22T18:37:44.291Z,13.17
2019-03-22T18:40:15.295Z,27.43
2019-03-22T18:42:43.940Z,22.00
2019-03-22T18:45:15.616Z,13.80
2019-03-22T18:47:44.040Z,15.10
2019-03-22T18:50:13.900Z,14.30
2019-03-22T18:52:42.484Z,9.80
2019-03-22T18:55:11.331Z,9.63
2019-03-22T18:57:39.751Z,8.77
2019-03-22T19:00:16.279Z,8.20
2019-03-22T19:02:44.690Z,9.40
2019-03-22T19:05:13.430Z,8.03
2019-03-22T19:07:41.896Z,8.97
2019-03-22T19:10:12.509Z,9.07
2019-03-22T19:12:40.914Z,8.37
2019-03-22T19:15:13.495Z,10.03
2019-03-22T19:17:41.965Z,13.87
2019-03-22T19:20:14.769Z,8.93
2019-03-22T19:22:43.170Z,8.93
2019-03-22T19:25:14.297Z,9.67
2019-03-22T19:27:42.236Z,10.17
2019-03-22T19:30:15.846Z,11.97
2019-03-22T19:32:45.199Z,9.13
2019-03-22T19:35:14.379Z,12.27
2019-03-22T19:37:42.806Z,11.77
2019-03-22T19:40:13.918Z,16.67
2019-03-22T19:42:42.397Z,14.77
2019-03-22T19:45:12.342Z,15.67
2019-03-22T19:47:40.778Z,23.43
2019-03-22T19:50:14.290Z,16.97
2019-03-22T19:52:43.048Z,19.17
2019-03-22T19:55:11.824Z,17.30
2019-03-22T19:57:40.243Z,21.20
2019-03-22T20:00:14.366Z,23.77
2019-03-22T20:02:42.844Z,24.93
2019-03-22T20:05:11.589Z,18.70
2019-03-22T20:07:40.014Z,13.03
2019-03-22T20:10:11.072Z,10.37
2019-03-22T20:12:39.471Z,9.60
2019-03-22T20:15:09.237Z,8.07
2019-03-22T20:17:37.703Z,8.47
2019-03-22T20:20:07.850Z,8.30
2019-03-22T20:22:36.248Z,8.40
2019-03-22T20:25:07.283Z,8.53
2019-03-22T20:27:35.677Z,8.77
2019-03-22T20:30:09.527Z,7.60
2019-03-22T20:32:37.916Z,5.20
2019-03-22T20:35:15.776Z,6.43
2019-03-22T20:37:37.828Z,7.77
2019-03-22T20:40:07.975Z,8.87
2019-03-22T20:42:36.368Z,6.43
2019-03-22T20:45:06.409Z,6.47
2019-03-22T20:47:34.812Z,6.77
2019-03-22T20:50:04.268Z,8.87
2019-03-22T20:52:32.705Z,8.30
2019-03-22T20:55:01.149Z,8.67
2019-03-22T20:57:29.552Z,10.40
2019-03-22T20:59:57.959Z,10.03
2019-03-22T21:02:26.362Z,9.97
2019-03-22T21:04:54.798Z,10.40
2019-03-22T21:07:23.220Z,9.83
2019-03-22T21:09:51.642Z,10.23
2019-03-22T21:12:20.020Z,9.83
2019-03-22T21:14:48.442Z,18.87
2019-03-22T21:17:16.841Z,21.87
2019-03-22T21:19:45.240Z,14.67
2019-03-22T21:22:13.650Z,8.60
2019-03-22T21:24:42.053Z,17.03
2019-03-22T21:27:15.537Z,15.63
2019-03-22T21:29:44.285Z,12.33
2019-03-22T21:32:10.722Z,13.57
2019-03-22T21:34:39.145Z,19.50
2019-03-22T21:37:07.542Z,16.80
2019-03-22T21:39:35.950Z,15.67
2019-03-22T21:42:04.426Z,18.37
2019-03-22T21:44:33.190Z,14.33
2019-03-22T21:47:01.602Z,14.80
2019-03-22T21:49:30.280Z,11.73
2019-03-22T21:51:58.680Z,7.77
2019-03-22T21:54:27.082Z,7.53
2019-03-22T21:56:55.489Z,7.37
2019-03-22T21:59:23.885Z,10.60
2019-03-22T22:01:52.293Z,8.30
2019-03-22T22:04:20.693Z,6.57
2019-03-22T22:06:49.407Z,8.27
2019-03-22T22:09:17.805Z,7.30
2019-03-22T22:11:46.227Z,8.70
2019-03-22T22:14:14.613Z,8.30
2019-03-22T22:16:43.029Z,7.50
2019-03-22T22:19:11.416Z,6.70
2019-03-22T22:21:39.826Z,7.17
2019-03-22T22:24:08.244Z,10.60
2019-03-22T22:26:36.651Z,10.33
2019-03-22T22:29:05.097Z,9.57
2019-03-22T22:31:33.522Z,10.73
2019-03-22T22:34:01.921Z,8.97
2019-03-22T22:36:30.330Z,9.50
2019-03-22T22:38:58.726Z,8.93
2019-03-22T22:41:27.139Z,8.17
2019-03-22T22:43:55.578Z,7.97
2019-03-22T22:46:24.021Z,9.00
2019-03-22T22:48:52.436Z,9.27
2019-03-22T22:51:20.850Z,7.73
2019-03-22T22:53:49.264Z,10.73
2019-03-22T22:56:17.673Z,8.00
2019-03-22T22:58:46.064Z,8.03
2019-03-22T23:01:14.483Z,7.20
2019-03-22T23:03:42.893Z,9.57
2019-03-22T23:06:11.288Z,10.40
2019-03-22T23:08:39.693Z,8.43
2019-03-22T23:11:08.090Z,7.40
2019-03-22T23:13:36.490Z,8.33
2019-03-22T23:16:04.899Z,7.33
2019-03-22T23:18:33.302Z,7.83
2019-03-22T23:21:01.693Z,7.23
2019-03-22T23:23:30.105Z,12.90
2019-03-22T23:25:58.497Z,8.90
2019-03-22T23:28:26.909Z,6.73
2019-03-22T23:30:55.310Z,6.57
2019-03-22T23:33:23.717Z,7.43
2019-03-22T23:35:52.118Z,9.90
2019-03-22T23:38:20.540Z,8.93
2019-03-22T23:40:48.925Z,8.93
2019-03-22T23:43:17.424Z,6.83
2019-03-22T23:45:45.821Z,8.10
2019-03-22T23:48:14.217Z,9.00
2019-03-22T23:50:42.617Z,7.90
2019-03-22T23:53:11.013Z,9.53
2019-03-22T23:55:39.418Z,8.43
2019-03-22T23:58:07.824Z,7.80
